Time;durP1;ratioP1;P1;durP2;ratioP2;P2;SDS_P1;SDS_P2;PMS_P1;PMS_P2;Temp;Humidity;BMP_temperature;BMP_pressure;BME280_temperature;BME280_humidity;BME280_pressure;Samples;Min_cycle;Max_cycle;Signal;HPM_P1;HPM_P2
2021/04/14 05:30:23;;;;;;;8.47;3.93;;;;;;;3.50;68.01;100799.33;1750851;76;27241;31
2021/04/14 05:32:50;;;;;;;9.38;3.40;;;;;;;3.46;68.13;100795.55;1706441;81;25617;-64
2021/04/14 05:35:18;;;;;;;10.53;3.42;;;;;;;3.44;68.37;100799.52;1718667;81;25271;-64
2021/04/14 05:37:45;;;;;;;6.35;2.40;;;;;;;3.41;68.48;100800.84;1697402;83;25969;-64
2021/04/14 05:40:13;;;;;;;7.03;2.58;;;;;;;3.33;68.79;100799.39;1678579;83;25653;-65
2021/04/14 05:42:46;;;;;;;7.60;2.65;;;;;;;3.24;68.79;100804.90;1716131;83;25331;-66
2021/04/14 05:45:19;;;;;;;12.68;2.90;;;;;;;3.18;69.25;100808.55;1707018;83;25520;-66
2021/04/14 05:47:45;;;;;;;8.15;2.50;;;;;;;3.11;69.59;100811.39;1706768;83;25340;-64
2021/04/14 05:50:16;;;;;;;5.55;2.22;;;;;;;3.07;70.10;100816.16;1683651;82;25804;-64
2021/04/14 05:52:43;;;;;;;10.45;2.50;;;;;;;3.03;70.17;100809.67;1686237;84;25464;-64
2021/04/14 05:55:12;;;;;;;6.67;2.40;;;;;;;3.02;70.76;100810.75;1673810;82;25272;-64
2021/04/14 05:57:39;;;;;;;4.97;2.35;;;;;;;2.99;70.79;100816.84;1693791;83;25339;-64
2021/04/14 06:00:11;;;;;;;4.65;2.00;;;;;;;2.99;70.81;100822.72;1734826;82;25345;-65
2021/04/14 06:02:41;;;;;;;11.12;2.20;;;;;;;2.95;71.08;100825.08;1709002;84;25722;-65
2021/04/14 06:05:07;;;;;;;5.97;2.17;;;;;;;2.94;71.16;100825.32;1693132;84;25365;-65
2021/04/14 06:07:34;;;;;;;8.83;2.50;;;;;;;2.88;71.28;100814.27;1734621;82;25372;-65
2021/04/14 06:10:01;;;;;;;9.38;3.17;;;;;;;2.86;71.43;100815.04;1708795;84;25307;-66
2021/04/14 06:12:28;;;;;;;10.25;3.47;;;;;;;2.84;71.71;100819.29;1693934;84;25503;-65
2021/04/14 06:14:55;;;;;;;7.92;3.25;;;;;;;2.83;71.99;100814.19;1686267;83;25915;-65
2021/04/14 06:17:22;;;;;;;8.73;3.02;;;;;;;2.84;72.16;100816.62;1696916;83;25658;-65
2021/04/14 06:19:49;;;;;;;7.62;3.12;;;;;;;2.85;72.29;100814.23;1683424;81;26059;-66
2021/04/14 06:22:16;;;;;;;6.75;3.17;;;;;;;2.87;72.58;100808.12;1722998;81;25213;-66
2021/04/14 06:24:43;;;;;;;12.10;4.35;;;;;;;2.90;72.67;100814.31;1716881;81;25509;-66
2021/04/14 06:27:14;;;;;;;8.38;3.20;;;;;;;2.93;72.74;100807.15;1706386;81;26479;-65
2021/04/14 06:29:39;;;;;;;11.65;3.35;;;;;;;2.95;72.85;100805.57;1670954;83;25888;-64
2021/04/14 06:32:06;;;;;;;10.48;3.25;;;;;;;2.97;72.78;100806.13;1662538;83;25888;-64
2021/04/14 06:34:33;;;;;;;9.55;3.17;;;;;;;2.99;72.69;100806.69;1683962;84;25526;-64
2021/04/14 06:37:00;;;;;;;8.78;2.90;;;;;;;2.97;72.11;100804.25;1686281;83;25641;-64
2021/04/14 06:42:50;;;;;;;7.08;3.02;;;;;;;3.03;72.07;100804.33;1831781;76;34511;-63
2021/04/14 06:45:31;;;;;;;8.05;2.60;;;;;;;2.98;71.97;100807.22;1803749;77;25853;-63
2021/04/14 06:48:55;;;;;;;6.97;2.42;;;;;;;3.01;72.08;100800.56;1728123;80;25720;-64
2021/04/14 06:51:45;;;;;;;7.22;2.70;;;;;;;2.99;71.68;100798.13;1786840;80;25447;-65
2021/04/14 06:54:37;;;;;;;7.17;2.95;;;;;;;3.00;71.83;100805.64;1750566;81;25420;-65
2021/04/14 06:57:18;;;;;;;5.85;2.22;;;;;;;2.99;71.74;100807.48;1762187;81;25466;-65
2021/04/14 06:59:52;;;;;;;7.87;3.15;;;;;;;3.00;71.63;100806.98;1762206;81;25424;-65
2021/04/14 07:02:24;;;;;;;5.72;3.52;;;;;;;2.97;71.67;100801.58;1762065;81;25727;-65
2021/04/14 07:05:03;;;;;;;6.85;3.77;;;;;;;2.97;71.69;100808.27;1756532;81;25260;-63
2021/04/14 07:07:33;;;;;;;9.18;4.37;;;;;;;2.98;71.87;100807.76;1762186;81;25452;-63
2021/04/14 07:10:21;;;;;;;8.75;3.35;;;;;;;2.99;71.97;100818.71;1762124;81;25479;-63
2021/04/14 07:12:49;;;;;;;9.33;3.35;;;;;;;2.94;71.94;100816.77;1776599;79;25456;-65
2021/04/14 07:15:19;;;;;;;8.95;3.55;;;;;;;2.89;71.80;100811.34;1786257;80;25702;-65
2021/04/14 07:18:01;;;;;;;;;;;;;;;2.84;71.90;100811.27;1769591;80;26340;-64
2021/04/14 07:20:40;;;;;;;8.23;3.98;;;;;;;2.79;72.11;100812.03;1800191;79;25260;-64
2021/04/14 07:23:25;;;;;;;11.17;4.27;;;;;;;2.75;72.39;100810.08;1779024;80;25526;-65
2021/04/14 07:26:12;;;;;;;10.18;5.20;;;;;;;2.72;72.77;100808.69;1761415;79;25492;-65
2021/04/14 07:29:15;;;;;;;12.13;4.70;;;;;;;2.71;72.85;100811.62;1676504;84;25791;-64
2021/04/14 07:32:10;;;;;;;15.60;4.62;;;;;;;2.69;73.16;100807.86;1675655;85;25497;-65
2021/04/14 07:35:10;;;;;;;12.50;4.83;;;;;;;2.72;73.40;100818.04;1675663;85;25357;-64
2021/04/14 07:37:58;;;;;;;11.73;4.87;;;;;;;2.69;73.56;100813.71;1675205;84;25493;-63
2021/04/14 07:40:59;;;;;;;14.63;6.03;;;;;;;2.62;73.59;100820.55;1675682;85;25555;-64
2021/04/14 07:43:40;;;;;;;16.00;5.15;;;;;;;2.54;73.81;100827.66;1675652;85;25901;-64
2021/04/14 07:46:11;;;;;;;11.38;5.30;;;;;;;2.44;73.67;100818.94;1675544;85;25387;-63
2021/04/14 07:48:42;;;;;;;16.05;5.83;;;;;;;2.38;73.92;100823.39;1675345;85;25515;-65
2021/04/14 07:51:16;;;;;;;13.78;5.37;;;;;;;2.31;74.01;100821.38;1675747;85;25506;-64
2021/04/14 07:54:03;;;;;;;14.83;5.25;;;;;;;2.26;74.13;100813.81;1674964;85;25546;-64
2021/04/14 07:56:50;;;;;;;13.35;5.35;;;;;;;2.22;74.41;100814.83;1675292;85;25814;-65
2021/04/14 07:59:38;;;;;;;16.02;5.37;;;;;;;2.31;74.86;100811.23;1810475;77;34557;-65
2021/04/14 08:02:11;;;;;;;20.48;5.92;;;;;;;2.23;75.07;100810.59;1785116;80;25527;-65
2021/04/14 08:04:45;;;;;;;11.63;4.65;;;;;;;2.28;75.39;100805.84;1765394;80;25762;-65
2021/04/14 08:07:19;;;;;;;11.70;4.60;;;;;;;2.30;75.52;100813.11;1727440;81;25633;-65
2021/04/14 08:10:02;;;;;;;8.95;4.37;;;;;;;2.31;75.66;100812.03;1776932;80;25492;-64
2021/04/14 08:12:36;;;;;;;8.23;4.25;;;;;;;2.37;75.87;100815.63;1760675;80;25476;-64
2021/04/14 08:15:55;;;;;;;9.00;3.72;;;;;;;2.42;76.21;100809.83;1769492;78;25285;-64
2021/04/14 08:18:30;;;;;;;7.33;4.05;;;;;;;2.49;76.22;100804.88;1722404;83;25725;-66
2021/04/14 08:25:39;;;;;;;11.48;4.42;;;;;;;2.63;76.59;100807.48;1720768;81;25500;-66
2021/04/14 08:28:08;;;;;;;9.53;4.35;;;;;;;2.67;76.58;100801.12;1726223;83;25516;-64
2021/04/14 08:30:35;;;;;;;14.55;6.15;;;;;;;2.74;77.00;100803.94;1726284;83;25444;-64
2021/04/14 08:33:10;;;;;;;9.80;4.90;;;;;;;2.78;76.85;100805.59;1726254;81;25829;-67
2021/04/14 08:35:44;;;;;;;9.53;4.62;;;;;;;2.79;76.71;100807.19;1726625;83;25712;-65
2021/04/14 08:38:24;;;;;;;12.33;5.20;;;;;;;2.80;76.76;100803.48;1747767;81;25307;-66
2021/04/14 08:40:57;;;;;;;13.10;5.90;;;;;;;2.82;76.63;100812.59;1746956;81;25636;-65
2021/04/14 08:43:39;;;;;;;19.10;8.55;;;;;;;2.78;76.49;100801.05;1722685;83;25496;-65
2021/04/14 08:46:19;;;;;;;10.85;5.97;;;;;;;2.79;76.60;100793.33;1722276;83;25966;-65
2021/04/14 08:48:53;;;;;;;9.93;5.43;;;;;;;2.82;76.81;100790.67;1725175;83;25505;-65
2021/04/14 08:51:22;;;;;;;10.72;5.37;;;;;;;2.88;76.98;100788.38;1726399;83;25312;-64
2021/04/14 08:53:53;;;;;;;10.87;4.83;;;;;;;2.90;76.90;100784.12;1732093;81;25781;-65
2021/04/14 08:56:21;;;;;;;9.98;5.15;;;;;;;2.92;77.05;100781.47;1745569;81;25522;-65
2021/04/14 08:58:49;;;;;;;10.50;4.80;;;;;;;2.96;77.18;100780.45;1721068;81;26880;-62
2021/04/14 09:01:17;;;;;;;8.18;4.60;;;;;;;3.00;77.30;100774.91;1719827;83;25774;-62
2021/04/14 09:03:46;;;;;;;6.35;3.70;;;;;;;3.02;77.04;100771.45;1720022;83;25648;-63
2021/04/14 09:06:16;;;;;;;8.35;4.37;;;;;;;3.06;77.34;100759.73;1720046;83;25575;-60
2021/04/14 09:08:47;;;;;;;8.30;4.37;;;;;;;3.08;77.14;100773.66;1719855;83;25519;-60
2021/04/14 09:11:25;;;;;;;;;;;;;;;3.08;76.97;100765.14;1721942;83;25775;-61
2021/04/14 09:16:57;;;;;;;7.85;4.37;;;;;;;3.21;77.27;100765.83;1849254;76;34647;-60
2021/04/14 09:19:42;;;;;;;11.93;6.28;;;;;;;3.10;77.11;100761.69;1819097;78;25248;-62
2021/04/14 09:22:28;;;;;;;11.73;5.83;;;;;;;3.13;77.20;100761.70;1819725;78;25980;-62
2021/04/14 09:25:06;;;;;;;8.15;4.80;;;;;;;3.10;77.04;100752.83;1819563;78;25820;-61
2021/04/14 09:27:42;;;;;;;10.05;4.65;;;;;;;3.11;77.07;100759.27;1819722;78;25289;-63
2021/04/14 09:30:17;;;;;;;8.53;4.12;;;;;;;3.07;77.09;100755.48;1819406;78;25316;-61
2021/04/14 09:32:52;;;;;;;11.28;5.83;;;;;;;3.06;77.12;100753.06;1819611;78;25445;-61
2021/04/14 09:35:33;;;;;;;5.58;3.75;;;;;;;3.07;77.24;100754.16;1819581;78;25891;-61
2021/04/14 09:38:23;;;;;;;4.92;3.47;;;;;;;3.05;77.04;100754.10;1819275;78;25537;-64
2021/04/14 09:40:54;;;;;;;4.45;3.02;;;;;;;3.02;77.21;100754.08;1819600;78;25615;-62
2021/04/14 09:43:32;;;;;;;6.85;3.47;;;;;;;2.97;77.05;100748.13;1787859;78;25293;-61
2021/04/14 09:46:09;;;;;;;9.43;3.77;;;;;;;2.94;77.00;100749.16;1819325;78;25630;-59
2021/04/14 09:48:46;;;;;;;4.90;3.80;;;;;;;2.90;77.16;100742.70;1819476;78;25692;-61
2021/04/14 09:51:33;;;;;;;5.42;3.25;;;;;;;2.84;77.03;100736.46;1811017;77;25277;-61
2021/04/14 09:54:17;;;;;;;8.53;3.70;;;;;;;2.85;77.46;100738.63;1727432;81;26263;-59
2021/04/14 09:56:53;;;;;;;5.75;3.62;;;;;;;2.84;77.41;100744.48;1737866;81;25601;-60
2021/04/14 09:59:27;;;;;;;5.03;3.27;;;;;;;2.83;77.58;100742.05;1738015;81;25568;-61
2021/04/14 10:02:02;;;;;;;5.30;3.35;;;;;;;2.82;77.68;100741.78;1726301;83;25808;-62
2021/04/14 10:04:38;;;;;;;4.95;2.95;;;;;;;2.85;77.71;100741.30;1877169;75;34631;-61
2021/04/14 10:07:22;;;;;;;11.18;4.08;;;;;;;2.78;77.88;100742.80;1844852;76;25559;-60
2021/04/14 10:09:49;;;;;;;7.00;3.83;;;;;;;2.78;77.99;100745.48;1842828;77;26823;-60
2021/04/14 10:12:21;;;;;;;8.03;3.95;;;;;;;2.77;78.11;100738.50;1841370;77;25499;-62
2021/04/14 10:14:52;;;;;;;7.10;4.15;;;;;;;2.82;78.19;100747.92;1811606;77;25630;-61
2021/04/14 10:17:23;;;;;;;7.53;4.15;;;;;;;2.85;78.29;100745.30;1840922;77;25580;-62
2021/04/14 10:22:43;;;;;;;5.72;3.22;;;;;;;2.92;78.11;100744.59;1830076;76;34612;-62
2021/04/14 10:25:27;;;;;;;8.23;3.45;;;;;;;2.82;77.81;100744.45;1802335;77;25333;-63
2021/04/14 10:28:03;;;;;;;7.25;3.25;;;;;;;2.82;77.85;100747.12;1813101;77;25850;-62
2021/04/14 10:30:33;;;;;;;6.53;3.33;;;;;;;2.79;77.76;100748.41;1810059;78;25621;-62
2021/04/14 10:33:08;;;;;;;6.30;3.35;;;;;;;2.79;77.97;100747.08;1819720;78;25435;-64
2021/04/14 10:35:36;;;;;;;6.08;3.42;;;;;;;2.79;78.02;100749.24;1818622;78;25568;-61
2021/04/14 10:38:03;;;;;;;6.67;3.60;;;;;;;2.82;78.19;100745.25;1805740;77;25555;-64
2021/04/14 10:40:37;;;;;;;6.30;3.47;;;;;;;2.85;78.12;100741.30;1801780;77;26213;-63
2021/04/14 10:43:23;;;;;;;4.05;3.62;;;;;;;2.87;78.34;100737.84;1808602;77;25377;-66
2021/04/14 10:46:27;;;;;;;6.83;4.35;;;;;;;2.88;78.15;100742.12;1787349;80;25271;-65
2021/04/14 10:49:08;;;;;;;9.95;4.65;;;;;;;2.88;78.17;100739.45;1796323;78;25437;-63
2021/04/14 10:51:47;;;;;;;7.53;4.00;;;;;;;2.87;78.04;100744.52;1819176;78;25248;-62
2021/04/14 10:54:17;;;;;;;6.03;3.60;;;;;;;2.84;78.21;100739.67;1821147;78;26792;-61
2021/04/14 10:59:51;;;;;;;10.00;4.00;;;;;;;2.88;78.55;100740.27;1736827;81;25481;-61
2021/04/14 11:02:23;;;;;;;5.17;3.65;;;;;;;2.86;78.43;100738.89;1754851;81;25725;-62
2021/04/14 11:05:03;;;;;;;6.83;4.05;;;;;;;2.94;78.54;100737.94;1835709;76;34462;-62
2021/04/14 11:07:32;;;;;;;8.55;5.62;;;;;;;2.87;78.44;100739.98;1804457;78;25418;-63
2021/04/14 11:10:04;;;;;;;5.78;4.22;;;;;;;2.87;78.71;100739.98;1795755;78;25762;-63
2021/04/14 11:12:31;;;;;;;6.00;4.10;;;;;;;2.88;78.62;100742.95;1804159;78;25531;-62
2021/04/14 11:15:15;;;;;;;8.83;4.40;;;;;;;2.91;78.79;100742.46;1797016;78;25561;-61
2021/04/14 11:17:43;;;;;;;7.72;4.03;;;;;;;2.92;78.60;100733.91;1806376;78;25581;-68
2021/04/14 11:20:14;;;;;;;8.53;4.00;;;;;;;2.93;78.57;100739.55;1787494;80;25422;-62
2021/04/14 11:22:46;;;;;;;7.95;3.85;;;;;;;2.92;78.56;100732.57;1801046;78;26030;-63
2021/04/14 11:25:33;;;;;;;6.12;4.33;;;;;;;2.91;78.50;100737.63;1802492;78;25602;-62
2021/04/14 11:28:04;;;;;;;14.28;7.22;;;;;;;2.92;78.56;100735.24;1805881;78;25549;-63
2021/04/14 11:30:34;;;;;;;5.65;4.37;;;;;;;2.89;78.49;100740.53;1806535;77;25567;-62
2021/04/14 11:33:03;;;;;;;9.28;5.25;;;;;;;2.89;78.59;100734.39;1799963;78;25615;-63
2021/04/14 11:35:41;;;;;;;7.05;4.05;;;;;;;2.92;78.71;100733.91;1788559;78;27062;-63
2021/04/14 11:38:34;;;;;;;7.58;4.08;;;;;;;2.92;78.74;100736.58;1807231;78;25595;-63
2021/04/14 11:41:31;;;;;;;7.22;3.45;;;;;;;2.90;78.46;100738.16;1818252;78;25277;-62
2021/04/14 11:43:59;;;;;;;9.63;3.72;;;;;;;2.89;78.63;100733.06;1786108;78;25450;-62
2021/04/14 11:46:38;;;;;;;5.40;4.10;;;;;;;2.87;78.71;100734.64;1801051;78;25284;-63
2021/04/14 11:49:12;;;;;;;7.62;3.87;;;;;;;2.87;78.65;100732.50;1802538;78;26548;-63
2021/04/14 11:51:43;;;;;;;6.15;3.58;;;;;;;2.87;78.92;100729.83;1804660;78;25538;-64
2021/04/14 11:54:30;;;;;;;11.00;4.50;;;;;;;2.86;78.86;100731.70;1805521;78;25281;-63
2021/04/14 11:57:24;;;;;;;6.70;4.47;;;;;;;2.86;78.91;100729.53;1805571;78;25429;-64
2021/04/14 12:00:25;;;;;;;4.95;3.22;;;;;;;2.87;79.07;100729.30;1817483;78;25138;-63
2021/04/14 12:03:01;;;;;;;6.40;3.62;;;;;;;2.85;78.94;100735.95;1810383;78;25774;-63
2021/04/14 12:05:30;;;;;;;4.00;3.22;;;;;;;2.84;78.95;100733.79;1790057;80;25430;-64
2021/04/14 12:07:58;;;;;;;6.87;3.60;;;;;;;2.85;79.17;100729.27;1789652;79;25591;-63
2021/04/14 12:10:26;;;;;;;6.47;4.53;;;;;;;2.83;79.07;100722.84;1789949;79;25628;-63
2021/04/14 12:12:53;;;;;;;8.15;4.83;;;;;;;2.87;79.35;100725.82;1801325;77;25581;-63
2021/04/14 12:15:21;;;;;;;8.60;5.65;;;;;;;2.90;79.39;100726.13;1805277;78;26678;-62
2021/04/14 12:17:47;;;;;;;8.88;5.00;;;;;;;2.92;79.39;100721.87;1809398;78;25616;-62
2021/04/14 12:20:15;;;;;;;6.22;4.17;;;;;;;2.94;79.26;100726.44;1812982;78;25390;-63
2021/04/14 12:22:42;;;;;;;27.42;15.25;;;;;;;2.92;79.11;100720.55;1803085;78;25671;-66
2021/04/14 12:25:11;;;;;;;13.20;8.23;;;;;;;2.94;79.21;100722.44;1801839;78;25663;-63
2021/04/14 12:27:38;;;;;;;9.50;5.40;;;;;;;2.95;79.26;100723.53;1806439;78;25933;-63
2021/04/14 12:30:07;;;;;;;7.40;3.90;;;;;;;2.97;79.13;100723.28;1810487;78;25731;-62
2021/04/14 12:32:34;;;;;;;4.92;4.12;;;;;;;2.94;79.00;100711.21;1808869;78;25491;-63
2021/04/14 12:35:02;;;;;;;3.95;3.42;;;;;;;2.95;79.18;100712.84;1788799;77;25498;-63
2021/04/14 12:37:29;;;;;;;6.70;3.65;;;;;;;2.98;79.23;100710.22;1786791;80;25592;-63
2021/04/14 12:39:56;;;;;;;30.72;14.00;;;;;;;3.01;79.15;100711.56;1786678;80;25906;-63
2021/04/14 12:42:25;;;;;;;6.58;4.03;;;;;;;3.01;79.27;100711.56;1804686;78;25758;-63
2021/04/14 12:44:54;;;;;;;4.83;3.47;;;;;;;3.01;79.12;100710.23;1803490;77;25569;-63
2021/04/14 12:47:25;;;;;;;5.35;3.60;;;;;;;3.02;79.31;100705.98;1831479;77;25257;-63
2021/04/14 12:49:53;;;;;;;9.15;3.98;;;;;;;3.04;79.37;100710.54;1818866;79;25101;-63
2021/04/14 12:52:40;;;;;;;7.35;4.00;;;;;;;3.07;79.39;100707.91;1817383;79;25741;-63
2021/04/14 12:55:15;;;;;;;8.65;3.80;;;;;;;3.05;79.18;100704.15;1816316;79;25503;-64
2021/04/14 12:57:43;;;;;;;5.80;3.95;;;;;;;3.07;79.17;100705.24;1807148;77;25250;-64
2021/04/14 13:00:14;;;;;;;11.15;3.98;;;;;;;3.06;79.34;100705.75;1808075;77;25312;-62
2021/04/14 13:02:51;;;;;;;6.22;3.80;;;;;;;3.09;79.39;100704.45;1786592;80;25551;-62
2021/04/14 13:05:29;;;;;;;5.87;3.83;;;;;;;3.11;79.60;100702.34;1786536;80;25788;-63
2021/04/14 13:08:07;;;;;;;6.78;3.35;;;;;;;3.16;79.73;100703.73;1786629;80;25452;-63
2021/04/14 13:10:54;;;;;;;4.33;2.98;;;;;;;3.20;79.64;100709.39;1786909;80;25502;-63
2021/04/14 13:13:22;;;;;;;8.53;3.98;;;;;;;3.16;79.36;100704.53;1786618;80;25637;-63
2021/04/14 13:15:54;;;;;;;7.20;3.08;;;;;;;3.14;79.53;100707.19;1786660;80;25324;-62
2021/04/14 13:18:21;;;;;;;9.90;4.28;;;;;;;3.14;79.51;100704.52;1804810;78;25697;-63
2021/04/14 13:20:56;;;;;;;6.20;3.65;;;;;;;3.16;79.71;100703.20;1801654;78;25653;-61
2021/04/14 13:23:49;;;;;;;4.58;3.30;;;;;;;3.21;79.95;100702.45;1786661;80;25412;-63
2021/04/14 13:26:28;;;;;;;5.33;3.70;;;;;;;3.21;79.62;100705.67;1786638;80;25762;-61
2021/04/14 13:29:02;;;;;;;12.70;6.62;;;;;;;3.15;79.46;100698.09;1786670;80;25466;-61
2021/04/14 13:31:34;;;;;;;10.30;4.80;;;;;;;3.13;79.46;100699.71;1786514;80;26809;-63
2021/04/14 13:34:17;;;;;;;9.10;4.20;;;;;;;3.13;79.63;100695.70;1812864;78;25599;-63
2021/04/14 13:36:59;;;;;;;7.90;3.77;;;;;;;3.14;79.85;100698.63;1818576;78;25473;-63
2021/04/14 13:39:30;;;;;;;6.67;4.10;;;;;;;3.15;79.71;100697.59;1818869;78;25507;-61
2021/04/14 13:42:11;;;;;;;8.18;3.98;;;;;;;3.13;79.80;100690.86;1809803;78;25427;-63
2021/04/14 13:44:50;;;;;;;7.17;3.62;;;;;;;3.12;79.76;100695.95;1808917;78;25774;-62
2021/04/14 13:47:41;;;;;;;12.35;6.92;;;;;;;3.11;79.81;100692.98;1760900;80;25621;-62
2021/04/14 13:50:31;;;;;;;10.32;5.30;;;;;;;3.16;79.94;100702.40;1889092;76;34596;-62
2021/04/14 13:53:08;;;;;;;9.45;4.72;;;;;;;3.08;79.93;100695.64;1856522;75;25573;-62
2021/04/14 13:55:35;;;;;;;7.25;4.05;;;;;;;3.09;80.04;100695.10;1835903;76;25889;-63
2021/04/14 13:58:20;;;;;;;9.98;4.97;;;;;;;3.09;80.03;100692.43;1786524;79;25817;-62
2021/04/14 14:00:54;;;;;;;8.95;4.87;;;;;;;3.08;80.06;100698.31;1790608;79;25314;-62
2021/04/14 14:03:23;;;;;;;9.08;4.12;;;;;;;3.05;79.95;100684.61;1796150;78;25319;-63
2021/04/14 14:05:56;;;;;;;4.80;3.17;;;;;;;3.06;80.06;100687.58;1758449;81;32209;-64
2021/04/14 14:11:24;;;;;;;5.78;3.60;;;;;;;3.11;80.20;100684.42;1818168;78;34919;-63
2021/04/14 14:13:58;;;;;;;;;;;;;;;3.06;80.11;100684.91;1792171;80;25506;-63
2021/04/14 14:16:46;;;;;;;6.33;3.77;;;;;;;3.06;80.08;100682.23;1789435;80;25980;-64
2021/04/14 14:19:24;;;;;;;7.78;3.72;;;;;;;3.05;80.18;100677.93;1777902;80;25488;-63
2021/04/14 14:21:55;;;;;;;5.87;3.60;;;;;;;3.04;80.27;100674.45;1772274;80;25690;-64
2021/04/14 14:24:25;;;;;;;5.87;3.55;;;;;;;3.02;80.23;100670.44;1757802;81;25636;-61
2021/04/14 14:26:53;;;;;;;5.97;4.25;;;;;;;3.03;80.32;100673.37;1761128;81;25436;-63
2021/04/14 14:29:24;;;;;;;5.37;3.37;;;;;;;3.03;80.43;100670.19;1788857;80;25907;-61
2021/04/14 14:31:58;;;;;;;14.58;5.97;;;;;;;3.02;80.29;100674.45;1760855;81;25480;-62
2021/04/14 14:34:28;;;;;;;16.15;7.95;;;;;;;2.97;80.17;100669.30;1788374;80;25274;-63
2021/04/14 14:37:11;;;;;;;15.60;7.72;;;;;;;2.97;80.45;100667.16;1761146;81;25497;-62
2021/04/14 14:39:47;;;;;;;8.35;4.55;;;;;;;2.98;80.58;100666.92;1782166;80;25357;-61
2021/04/14 14:42:36;;;;;;;4.83;3.72;;;;;;;2.96;80.40;100672.22;1771825;80;26588;-63
2021/04/14 14:45:24;;;;;;;6.13;4.53;;;;;;;3.00;80.66;100673.35;1765527;80;25390;-63
2021/04/14 14:48:09;;;;;;;6.47;4.00;;;;;;;2.98;80.65;100665.58;1760142;81;25521;-63
2021/04/14 14:50:40;;;;;;;8.88;3.95;;;;;;;3.01;80.70;100666.94;1764021;81;25872;-62
2021/04/14 14:53:11;;;;;;;5.72;3.72;;;;;;;3.01;80.76;100672.28;1739372;82;25502;-65
2021/04/14 14:55:38;;;;;;;4.78;3.37;;;;;;;3.03;80.76;100670.19;1751449;81;25705;-65
2021/04/14 14:58:25;;;;;;;8.10;3.75;;;;;;;3.04;80.74;100672.33;1760297;81;25274;-62
2021/04/14 15:01:02;;;;;;;7.62;3.65;;;;;;;3.04;80.86;100673.12;1768906;81;25362;-63
2021/04/14 15:03:28;;;;;;;7.15;3.75;;;;;;;3.03;80.70;100668.85;1765182;81;25406;-62
2021/04/14 15:05:55;;;;;;;8.30;3.45;;;;;;;3.03;80.69;100668.02;1765323;81;25439;-63
2021/04/14 15:08:22;;;;;;;7.62;3.80;;;;;;;3.01;80.58;100670.94;1767995;81;25799;-63
2021/04/14 15:10:49;;;;;;;9.00;4.33;;;;;;;3.01;80.73;100667.47;1760550;81;25601;-63
2021/04/14 15:13:15;;;;;;;7.92;4.22;;;;;;;3.00;80.75;100668.01;1749255;81;25633;-63
2021/04/14 15:15:42;;;;;;;8.50;4.62;;;;;;;2.98;80.71;100670.13;1740437;81;25339;-62
2021/04/14 15:18:09;;;;;;;6.55;4.12;;;;;;;2.96;80.79;100666.88;1733222;81;26119;-62
2021/04/14 15:20:36;;;;;;;10.75;4.65;;;;;;;2.95;80.75;100670.08;1753213;81;25944;-62
2021/04/14 15:23:03;;;;;;;7.05;4.22;;;;;;;2.95;80.95;100662.60;1744931;81;25634;-62
2021/04/14 15:25:29;;;;;;;12.40;5.20;;;;;;;2.96;80.93;100672.22;1751924;81;25267;-62
2021/04/14 15:28:00;;;;;;;7.03;4.40;;;;;;;2.94;80.84;100673.00;1749591;81;25670;-63
2021/04/14 15:30:33;;;;;;;5.05;3.95;;;;;;;2.94;80.92;100668.98;1748929;81;25530;-62
2021/04/14 15:33:02;;;;;;;6.90;4.15;;;;;;;2.95;80.91;100667.95;1762111;81;26599;-62
2021/04/14 15:35:30;;;;;;;8.88;4.90;;;;;;;2.94;80.87;100666.31;1748958;81;25544;-64
2021/04/14 15:38:02;;;;;;;9.58;5.22;;;;;;;2.93;80.97;100667.39;1745104;81;26084;-63
2021/04/14 15:40:37;;;;;;;8.00;4.62;;;;;;;2.92;81.02;100666.56;1733645;81;25900;-63
2021/04/14 15:43:07;;;;;;;9.20;4.70;;;;;;;2.91;81.13;100662.30;1735786;81;25590;-63
2021/04/14 15:45:35;;;;;;;8.40;4.40;;;;;;;2.88;80.90;100660.11;1753546;81;25917;-62
2021/04/14 15:48:04;;;;;;;10.88;5.50;;;;;;;2.87;81.07;100663.83;1752302;81;25613;-63
2021/04/14 15:50:33;;;;;;;9.50;4.70;;;;;;;2.85;80.96;100663.28;1748519;81;25662;-63
2021/04/14 15:53:00;;;;;;;8.75;4.85;;;;;;;2.85;81.09;100660.61;1757474;81;25665;-63
2021/04/14 15:56:37;;;;;;;8.33;5.20;;;;;;;2.91;81.25;100664.97;1817967;78;35888;-62
2021/04/14 15:59:10;;;;;;;9.05;4.80;;;;;;;2.88;81.49;100663.30;1784933;79;25607;-64
2021/04/14 16:04:15;;;;;;;21.02;11.20;;;;;;;2.99;81.63;100669.85;1849765;74;34695;-61
2021/04/14 16:06:46;;;;;;;29.80;14.45;;;;;;;2.94;81.51;100664.98;1817465;78;25176;-60
2021/04/14 16:09:15;;;;;;;24.37;12.05;;;;;;;2.94;81.44;100667.66;1818455;78;25754;-63
2021/04/14 16:11:42;;;;;;;13.10;6.37;;;;;;;2.95;81.40;100661.27;1818542;78;35153;-61
2021/04/14 16:14:10;;;;;;;11.63;5.67;;;;;;;2.97;81.55;100663.16;1825326;77;25518;-61
2021/04/14 16:16:37;;;;;;;12.63;5.78;;;;;;;2.98;81.57;100656.77;1833058;77;25512;-62
2021/04/14 16:19:05;;;;;;;9.13;5.67;;;;;;;3.00;81.62;100661.33;1848860;76;25500;-63
2021/04/14 16:21:36;;;;;;;9.05;5.30;;;;;;;3.03;81.53;100654.66;1824541;76;25968;-62
2021/04/14 16:24:08;;;;;;;10.98;6.28;;;;;;;3.03;81.49;100656.83;1847100;77;25695;-62
2021/04/14 16:26:36;;;;;;;12.90;6.67;;;;;;;3.05;81.66;100653.87;1851861;77;25560;-64
2021/04/14 16:29:04;;;;;;;14.23;7.62;;;;;;;3.03;81.54;100651.48;1847340;77;25383;-64
2021/04/14 16:31:33;;;;;;;14.60;6.67;;;;;;;3.03;81.47;100650.14;1818441;78;25338;-64
2021/04/14 16:34:04;;;;;;;22.85;10.20;;;;;;;3.01;81.48;100654.11;1818461;78;25807;-62
2021/04/14 16:36:32;;;;;;;35.83;14.00;;;;;;;2.96;81.28;100657.52;1818380;78;25434;-63
2021/04/14 16:38:59;;;;;;;24.90;12.28;;;;;;;2.96;81.39;100661.02;1825995;76;25578;-63
2021/04/14 16:41:26;;;;;;;24.92;12.95;;;;;;;2.97;81.56;100660.48;1817826;76;25627;-63
2021/04/14 16:43:54;;;;;;;23.60;10.85;;;;;;;2.98;81.77;100656.77;1817935;78;26207;-62
2021/04/14 16:46:21;;;;;;;16.82;9.88;;;;;;;2.99;81.74;100652.48;1817792;78;25998;-63
2021/04/14 16:48:49;;;;;;;14.75;8.60;;;;;;;3.01;81.83;100658.12;1831321;76;25625;-64
2021/04/14 16:51:16;;;;;;;20.12;10.08;;;;;;;2.97;81.62;100653.27;1851217;77;25586;-64
2021/04/14 16:53:43;;;;;;;28.98;13.25;;;;;;;2.98;81.75;100656.77;1851070;77;25227;-64
2021/04/14 16:56:10;;;;;;;22.15;11.75;;;;;;;2.96;81.77;100654.34;1851191;77;25523;-63
2021/04/14 16:58:57;;;;;;;14.20;8.33;;;;;;;2.97;81.79;100654.60;1822793;77;28079;-63
2021/04/14 17:01:42;;;;;;;16.27;9.05;;;;;;;2.96;81.67;100651.66;1816834;78;25772;-61
2021/04/14 17:04:09;;;;;;;14.68;8.00;;;;;;;2.96;81.71;100657.02;1820619;78;25598;-63
2021/04/14 17:06:37;;;;;;;22.80;12.98;;;;;;;2.95;81.68;100655.92;1821402;78;25690;-63
2021/04/14 17:09:06;;;;;;;21.75;13.28;;;;;;;2.94;81.67;100657.77;1820898;78;25710;-63
2021/04/14 17:11:34;;;;;;;14.28;8.10;;;;;;;2.94;81.72;100655.62;1821116;78;25766;-63
2021/04/14 17:14:01;;;;;;;16.82;8.33;;;;;;;2.95;81.80;100657.26;1820739;78;25637;-63
2021/04/14 17:16:28;;;;;;;16.73;9.18;;;;;;;2.96;81.93;100657.52;1821177;76;26308;-63
2021/04/14 17:18:56;;;;;;;14.58;7.33;;;;;;;2.94;81.82;100657.77;1821853;76;25645;-63
2021/04/14 17:21:23;;;;;;;16.73;7.87;;;;;;;2.94;81.83;100656.97;1874152;76;25531;-64
2021/04/14 17:23:50;;;;;;;11.38;7.58;;;;;;;2.94;81.91;100656.42;1789116;79;25808;-64
2021/04/14 17:26:17;;;;;;;10.13;7.10;;;;;;;2.94;81.97;100655.09;1814460;79;25711;-64
2021/04/14 17:28:44;;;;;;;10.90;7.22;;;;;;;2.95;81.91;100658.05;1788693;79;25546;-63
2021/04/14 17:31:11;;;;;;;10.03;7.03;;;;;;;2.93;81.85;100654.83;1794503;80;25493;-62
2021/04/14 17:33:37;;;;;;;11.28;7.05;;;;;;;2.92;81.76;100656.41;1794325;80;25446;-62
2021/04/14 17:36:08;;;;;;;14.68;7.62;;;;;;;2.90;81.73;100653.98;1794592;80;26725;-63
2021/04/14 17:38:35;;;;;;;10.25;7.40;;;;;;;2.90;81.84;100657.20;1794232;80;25300;-62
2021/04/14 17:41:02;;;;;;;11.20;7.58;;;;;;;2.90;81.89;100662.00;1794487;79;25308;-61
2021/04/14 17:43:28;;;;;;;11.40;7.42;;;;;;;2.89;81.92;100660.37;1784921;78;26226;-62
2021/04/14 17:45:55;;;;;;;15.32;8.15;;;;;;;2.90;81.96;100662.54;1758122;80;25526;-63
2021/04/14 17:48:22;;;;;;;14.80;7.60;;;;;;;2.89;82.00;100665.72;1777372;78;26169;-62
2021/04/14 17:50:49;;;;;;;15.23;8.00;;;;;;;2.89;81.94;100664.92;1805221;78;25707;-63
2021/04/14 17:53:17;;;;;;;16.40;8.98;;;;;;;2.86;81.94;100667.58;1826906;78;25572;-63
2021/04/14 17:55:49;;;;;;;15.95;8.58;;;;;;;2.87;82.02;100661.70;1819106;78;25618;-63